Time;durP1;ratioP1;P1;durP2;ratioP2;P2;SDS_P1;SDS_P2;PMS_P1;PMS_P2;Temp;Humidity;BMP_temperature;BMP_pressure;BME280_temperature;BME280_humidity;BME280_pressure;Samples;Min_cycle;Max_cycle;Signal;HPM_P1;HPM_P2
2023/08/12 00:00:12;;;;;;;6.40;3.80;;;;;;;18.62;100.00;101435.28;7395144;19;20415;-41
2023/08/12 00:02:44;;;;;;;6.70;4.13;;;;;;;18.59;100.00;101426.50;7371369;19;20411;-40
2023/08/12 00:05:15;;;;;;;6.83;3.90;;;;;;;18.55;100.00;101429.94;7392695;19;20403;-42
2023/08/12 00:07:45;;;;;;;5.83;4.10;;;;;;;18.53;100.00;101432.50;7370475;19;21008;-45
2023/08/12 00:10:15;;;;;;;8.00;3.87;;;;;;;18.54;100.00;101422.94;7397327;19;20412;-46
2023/08/12 00:12:45;;;;;;;7.03;4.63;;;;;;;18.53;100.00;101434.22;7370318;19;20959;-45
2023/08/12 00:15:15;;;;;;;15.23;8.10;;;;;;;18.48;100.00;101440.28;7391178;19;20420;-40
2023/08/12 00:17:47;;;;;;;8.70;5.10;;;;;;;18.47;100.00;101448.06;7370885;19;20434;-42
2023/08/12 00:20:17;;;;;;;9.67;4.47;;;;;;;18.47;100.00;101448.94;7394143;19;20415;-42
2023/08/12 00:22:47;;;;;;;8.70;3.93;;;;;;;18.45;100.00;101442.81;7370886;19;21320;-40
2023/08/12 00:25:17;;;;;;;6.37;4.40;;;;;;;18.46;100.00;101438.47;7395449;19;20424;-40
2023/08/12 00:27:47;;;;;;;4.97;3.80;;;;;;;18.42;100.00;101434.91;7368936;19;20489;-40
2023/08/12 00:30:17;;;;;;;10.20;6.00;;;;;;;18.45;100.00;101439.28;7387419;19;20403;-40
2023/08/12 00:32:49;;;;;;;7.73;5.83;;;;;;;18.44;100.00;101435.81;7366088;19;20425;-40
2023/08/12 00:35:19;;;;;;;6.10;4.80;;;;;;;18.41;100.00;101417.47;7388907;19;20419;-44
2023/08/12 00:37:49;;;;;;;7.40;4.10;;;;;;;18.38;100.00;101412.19;7365221;19;20857;-42
2023/08/12 00:40:21;;;;;;;6.80;4.57;;;;;;;18.38;100.00;101421.75;7394615;19;20491;-45
2023/08/12 00:42:51;;;;;;;5.93;4.13;;;;;;;18.31;100.00;101420.75;7366122;19;20403;-40
2023/08/12 00:45:20;;;;;;;7.50;4.67;;;;;;;18.32;100.00;101431.22;7392656;19;20438;-45
2023/08/12 00:47:52;;;;;;;11.07;6.00;;;;;;;18.32;100.00;101423.38;7370008;19;20403;-46
2023/08/12 00:50:22;;;;;;;5.73;4.00;;;;;;;18.34;100.00;101428.63;7392053;19;20474;-44
2023/08/12 00:52:52;;;;;;;8.30;3.90;;;;;;;18.31;100.00;101420.75;7367065;19;20965;-41
2023/08/12 00:55:23;;;;;;;15.83;4.00;;;;;;;18.31;100.00;101426.84;7387820;19;21270;-44
2023/08/12 00:57:53;;;;;;;6.90;4.03;;;;;;;18.27;100.00;101421.53;7370510;19;20438;-45
2023/08/12 01:00:24;;;;;;;6.23;3.83;;;;;;;18.26;100.00;101420.66;7393163;19;20479;-42
2023/08/12 01:02:58;;;;;;;7.40;3.83;;;;;;;18.26;100.00;101422.38;7367598;19;20878;-40
2023/08/12 01:05:28;;;;;;;5.37;3.60;;;;;;;18.25;100.00;101425.84;7388746;19;20388;-44
2023/08/12 01:07:58;;;;;;;6.30;3.70;;;;;;;18.25;100.00;101431.06;7366727;19;20492;-43
2023/08/12 01:10:30;;;;;;;5.20;3.80;;;;;;;18.26;100.00;101438.06;7388049;19;20471;-43
2023/08/12 01:13:07;;;;;;;8.17;3.73;;;;;;;18.20;100.00;101429.25;7365555;19;20998;-45
2023/08/12 01:15:37;;;;;;;6.40;4.00;;;;;;;18.19;100.00;101423.97;7390823;19;20405;-45
2023/08/12 01:18:10;;;;;;;6.10;4.07;;;;;;;18.19;100.00;101418.75;7365576;19;20473;-42
2023/08/12 01:20:39;;;;;;;6.57;4.00;;;;;;;18.18;100.00;101417.91;7390279;19;20400;-45
2023/08/12 01:23:14;;;;;;;5.77;3.90;;;;;;;18.20;100.00;101408.34;7368415;19;20468;-44
2023/08/12 01:25:45;;;;;;;14.83;4.10;;;;;;;18.19;100.00;101403.09;7391392;19;20936;-41
2023/08/12 01:28:15;;;;;;;10.20;4.27;;;;;;;18.18;100.00;101404.84;7364451;19;20422;-48
2023/08/12 01:30:50;;;;;;;7.70;3.53;;;;;;;18.11;100.00;101426.44;7393328;19;20399;-41
2023/08/12 01:33:24;;;;;;;4.53;2.90;;;;;;;18.11;100.00;101436.91;7366937;19;20409;-45
2023/08/12 01:35:57;;;;;;;9.53;4.23;;;;;;;18.10;100.00;101437.72;7392095;19;20391;-45
2023/08/12 01:38:30;;;;;;;6.87;3.77;;;;;;;18.08;100.00;101442.94;7369470;19;20423;-50
2023/08/12 01:41:01;;;;;;;7.60;3.87;;;;;;;18.03;100.00;101469.72;7394294;19;20919;-45
2023/08/12 01:43:31;;;;;;;8.17;5.17;;;;;;;18.06;100.00;101480.28;7369419;19;20423;-42
2023/08/12 01:46:01;;;;;;;8.73;4.37;;;;;;;18.05;100.00;101468.06;7394203;19;20392;-45
2023/08/12 01:48:31;;;;;;;8.93;3.83;;;;;;;17.97;100.00;101482.66;7364275;19;20423;-40
2023/08/12 01:51:00;;;;;;;12.20;4.37;;;;;;;18.00;100.00;101498.41;7396304;19;20447;-41
2023/08/12 01:53:33;;;;;;;5.07;3.60;;;;;;;18.02;100.00;101491.47;7369291;19;20438;-43
2023/08/12 01:56:02;;;;;;;6.90;3.90;;;;;;;18.02;100.00;101487.16;7391590;19;20416;-40
2023/08/12 01:58:32;;;;;;;10.87;4.27;;;;;;;18.04;100.00;101505.44;7370268;19;20496;-43
2023/08/12 02:01:02;;;;;;;7.60;4.80;;;;;;;17.98;100.00;101513.13;7395914;19;20412;-40
2023/08/12 02:03:31;;;;;;;5.50;4.10;;;;;;;17.91;100.00;101510.41;7367420;19;20441;-40
2023/08/12 02:06:01;;;;;;;5.93;4.13;;;;;;;17.90;100.00;101511.22;7394620;19;20939;-44
2023/08/12 02:08:33;;;;;;;10.33;5.23;;;;;;;17.90;100.00;101529.50;7367350;19;20950;-45
2023/08/12 02:11:03;;;;;;;6.53;4.23;;;;;;;17.87;100.00;101533.75;7393518;19;20403;-45
2023/08/12 02:13:32;;;;;;;7.20;4.80;;;;;;;17.80;100.00;101543.19;7368299;19;20460;-44
2023/08/12 02:16:02;;;;;;;7.80;3.80;;;;;;;17.78;100.00;101550.06;7395356;19;20779;-40
2023/08/12 02:18:32;;;;;;;7.70;4.17;;;;;;;17.77;100.00;101549.22;7369275;19;20470;-45
2023/08/12 02:21:02;;;;;;;7.10;3.80;;;;;;;17.77;100.00;101556.16;7392515;19;20487;-41
2023/08/12 02:23:34;;;;;;;11.07;6.33;;;;;;;17.85;100.00;101556.34;7368376;19;20790;-42
2023/08/12 02:26:04;;;;;;;6.40;4.70;;;;;;;17.83;100.00;101553.69;7392820;19;20512;-41
2023/08/12 02:28:34;;;;;;;5.73;3.40;;;;;;;17.79;100.00;101551.88;7367459;19;20863;-43
2023/08/12 02:31:04;;;;;;;8.90;3.80;;;;;;;17.83;100.00;101545.84;7392614;19;20407;-41
2023/08/12 02:33:33;;;;;;;5.87;4.00;;;;;;;17.81;100.00;101544.94;7365238;19;20458;-42
2023/08/12 02:36:03;;;;;;;6.30;3.60;;;;;;;17.73;100.00;101544.75;7393862;19;20763;-47
2023/08/12 02:38:35;;;;;;;6.80;3.77;;;;;;;17.70;100.00;101542.06;7367811;19;20423;-43
2023/08/12 02:41:05;;;;;;;6.70;4.00;;;;;;;17.88;100.00;101572.97;7394230;19;20433;-40
2023/08/12 02:43:35;;;;;;;7.70;4.07;;;;;;;17.87;100.00;101580.75;7368582;19;20481;-44
2023/08/12 02:46:04;;;;;;;14.27;6.43;;;;;;;17.81;100.00;101603.22;7394058;19;20459;-43
2023/08/12 02:48:34;;;;;;;12.53;6.97;;;;;;;17.77;100.00;101613.56;7367610;19;20436;-45
2023/08/12 02:51:04;;;;;;;10.73;7.00;;;;;;;17.79;100.00;101638.00;7392056;19;20947;-45
2023/08/12 02:53:36;;;;;;;6.27;4.50;;;;;;;17.68;100.00;101614.19;7367359;19;20427;-43
2023/08/12 02:56:06;;;;;;;8.77;5.00;;;;;;;17.60;100.00;101608.81;7393429;19;21152;-50
2023/08/12 02:58:37;;;;;;;5.10;3.23;;;;;;;17.61;100.00;101604.44;7367354;19;20442;-41
2023/08/12 03:01:07;;;;;;;7.70;4.10;;;;;;;17.63;100.00;101593.22;7395052;19;20413;-48
2023/08/12 03:03:37;;;;;;;8.10;3.20;;;;;;;17.62;100.00;101581.00;7367235;19;21004;-47
2023/08/12 03:06:07;;;;;;;6.77;4.87;;;;;;;17.66;100.00;101577.66;7391647;19;20506;-47
2023/08/12 03:08:39;;;;;;;6.50;3.87;;;;;;;17.66;100.00;101564.59;7371114;19;20461;-50
2023/08/12 03:11:09;;;;;;;7.30;4.10;;;;;;;17.65;100.00;101560.19;7401423;19;20439;-45
2023/08/12 03:13:38;;;;;;;4.20;3.07;;;;;;;17.60;100.00;101574.00;7373717;19;20447;-42
2023/08/12 03:16:15;;;;;;;25.20;12.50;;;;;;;17.63;100.00;101577.56;7400437;19;20431;-45
2023/08/12 03:18:45;;;;;;;128.03;64.33;;;;;;;17.80;100.00;101587.56;7374167;19;20454;-45
2023/08/12 03:21:15;;;;;;;68.57;33.30;;;;;;;17.84;100.00;101581.53;7399790;19;20407;-42
2023/08/12 03:23:47;;;;;;;38.60;20.60;;;;;;;17.79;100.00;101562.31;7373524;19;20461;-44
2023/08/12 03:26:17;;;;;;;38.17;22.30;;;;;;;17.78;100.00;101539.63;7396614;19;20435;-42
2023/08/12 03:28:46;;;;;;;64.37;36.87;;;;;;;17.86;100.00;101564.22;7374589;19;20462;-40
2023/08/12 03:31:16;;;;;;;23.80;13.03;;;;;;;17.84;100.00;101551.97;7399048;19;20989;-40
2023/08/12 03:33:46;;;;;;;34.03;20.70;;;;;;;17.88;100.00;101567.72;7372964;19;20799;-40
2023/08/12 03:36:15;;;;;;;12.87;8.00;;;;;;;17.89;100.00;101559.06;7398603;19;20450;-41
2023/08/12 03:38:48;;;;;;;13.30;7.97;;;;;;;17.78;100.00;101544.84;7368458;19;20427;-40
2023/08/12 03:41:17;;;;;;;9.73;4.70;;;;;;;17.76;100.00;101541.34;7396939;19;20407;-42
2023/08/12 03:43:47;;;;;;;12.73;5.57;;;;;;;17.77;100.00;101561.38;7371867;19;20446;-43
2023/08/12 03:46:17;;;;;;;6.37;4.90;;;;;;;17.65;100.00;101560.19;7396897;19;20522;-44
2023/08/12 03:48:46;;;;;;;6.53;4.60;;;;;;;17.47;100.00;101567.56;7374857;19;20445;-46
2023/08/12 03:51:16;;;;;;;20.93;13.03;;;;;;;17.59;100.00;101590.50;7399596;19;20407;-48
2023/08/12 03:53:48;;;;;;;21.70;13.63;;;;;;;17.53;100.00;101599.03;7373199;19;20431;-49
2023/08/12 03:56:18;;;;;;;14.10;8.43;;;;;;;17.53;100.00;101606.84;7398801;19;20959;-45
2023/08/12 03:58:48;;;;;;;13.57;6.40;;;;;;;17.57;100.00;101610.44;7371693;19;21061;-50
2023/08/12 04:01:18;;;;;;;13.37;6.23;;;;;;;17.56;100.00;101612.16;7398932;19;20411;-51
2023/08/12 04:03:47;;;;;;;6.97;4.80;;;;;;;17.58;100.00;101620.91;7372163;19;20439;-44
2023/08/12 04:06:17;;;;;;;11.23;5.73;;;;;;;17.50;100.00;101625.03;7395980;19;20502;-43
2023/08/12 04:08:49;;;;;;;10.40;4.60;;;;;;;17.14;100.00;101624.94;7375216;19;20490;-44
2023/08/12 04:11:19;;;;;;;6.43;3.90;;;;;;;17.15;100.00;101625.84;7396476;19;20495;-44
2023/08/12 04:13:48;;;;;;;8.47;4.83;;;;;;;17.25;100.00;101664.38;7372117;19;20969;-41
2023/08/12 04:16:18;;;;;;;5.53;4.27;;;;;;;17.20;100.00;101670.28;7397878;19;20461;-43
2023/08/12 04:18:48;;;;;;;7.50;4.77;;;;;;;17.22;100.00;101679.06;7372308;19;20457;-43
2023/08/12 04:21:18;;;;;;;9.10;5.13;;;;;;;17.27;100.00;101693.97;7396171;19;20407;-40
2023/08/12 04:23:50;;;;;;;7.47;4.67;;;;;;;17.19;100.00;101685.06;7372041;19;21351;-43
2023/08/12 04:26:19;;;;;;;8.00;3.93;;;;;;;17.17;100.00;101684.13;7398150;19;20437;-50
2023/08/12 04:28:49;;;;;;;6.20;3.80;;;;;;;17.20;100.00;101683.31;7371646;19;20443;-49
2023/08/12 04:31:19;;;;;;;8.77;5.10;;;;;;;17.30;100.00;101690.59;7395829;19;20450;-41
2023/08/12 04:33:49;;;;;;;7.83;4.87;;;;;;;17.30;100.00;101703.63;7370384;19;20502;-40
2023/08/12 04:36:19;;;;;;;13.17;4.60;;;;;;;17.10;100.00;101701.31;7397618;19;20438;-45
2023/08/12 04:38:51;;;;;;;10.13;6.30;;;;;;;17.19;100.00;101720.66;7373693;19;20468;-40
2023/08/12 04:41:23;;;;;;;8.83;5.40;;;;;;;17.28;100.00;101731.38;7396035;19;20436;-43
2023/08/12 04:43:53;;;;;;;7.93;4.80;;;;;;;17.26;100.00;101727.84;7370297;19;20427;-42
2023/08/12 04:46:23;;;;;;;7.97;5.10;;;;;;;17.20;100.00;101732.88;7397805;19;20988;-40
2023/08/12 04:48:52;;;;;;;8.10;5.53;;;;;;;17.28;100.00;101742.69;7372354;19;20459;-42
2023/08/12 04:51:22;;;;;;;11.30;5.50;;;;;;;17.37;100.00;101744.69;7397644;19;20406;-41
2023/08/12 04:53:55;;;;;;;7.10;5.60;;;;;;;17.39;100.00;101747.34;7371577;19;20795;-41
2023/08/12 04:56:24;;;;;;;5.90;4.13;;;;;;;17.15;100.00;101743.16;7395616;19;20447;-40
2023/08/12 04:58:54;;;;;;;6.03;3.93;;;;;;;17.00;100.00;101735.72;7371088;19;20423;-42
2023/08/12 05:01:24;;;;;;;4.90;3.83;;;;;;;16.99;100.00;101744.38;7395755;19;20851;-39
2023/08/12 05:03:54;;;;;;;7.53;3.90;;;;;;;17.03;100.00;101734.97;7369025;19;20434;-40
2023/08/12 05:06:24;;;;;;;6.20;4.60;;;;;;;17.17;100.00;101744.09;7395698;19;20455;-41
2023/08/12 05:08:56;;;;;;;9.43;5.07;;;;;;;17.31;100.00;101744.50;7371707;19;20427;-40
2023/08/12 05:11:26;;;;;;;7.10;5.00;;;;;;;17.34;100.00;101741.09;7395113;19;20412;-47
2023/08/12 05:13:56;;;;;;;6.50;4.50;;;;;;;17.42;100.00;101739.59;7371125;19;20427;-39
2023/08/12 05:16:25;;;;;;;5.70;4.07;;;;;;;17.44;100.00;101730.13;7395950;19;20447;-41
2023/08/12 05:18:55;;;;;;;7.67;4.30;;;;;;;17.27;100.00;101729.59;7366410;19;20607;-42
2023/08/12 05:21:25;;;;;;;6.47;4.40;;;;;;;17.22;100.00;101726.00;7397034;19;20403;-43
2023/08/12 05:23:57;;;;;;;6.60;4.50;;;;;;;17.24;100.00;101714.75;7371155;19;20458;-42
2023/08/12 05:26:27;;;;;;;9.13;4.83;;;;;;;17.25;100.00;101713.03;7394497;19;20874;-42
2023/08/12 05:29:02;;;;;;;9.60;6.10;;;;;;;17.14;100.00;101724.00;7370354;19;20431;-40
2023/08/12 05:31:32;;;;;;;6.53;4.63;;;;;;;17.06;100.00;101725.50;7392570;19;20931;-43
2023/08/12 05:34:02;;;;;;;7.30;4.40;;;;;;;17.00;100.00;101720.09;7370402;19;20431;-42
2023/08/12 05:36:32;;;;;;;10.77;4.53;;;;;;;17.03;100.00;101673.31;7393445;19;20432;-41
2023/08/12 05:39:04;;;;;;;5.90;4.33;;;;;;;17.10;100.00;101641.34;7370719;19;20448;-41
2023/08/12 05:41:34;;;;;;;6.70;4.40;;;;;;;17.26;100.00;101603.56;7397455;19;20400;-40
2023/08/12 05:44:03;;;;;;;8.40;5.37;;;;;;;17.19;100.00;101574.66;7368443;19;20894;-41
2023/08/12 05:46:33;;;;;;;13.33;6.50;;;;;;;17.07;100.00;101565.66;7396081;19;20440;-40
2023/08/12 05:49:03;;;;;;;9.33;5.90;;;;;;;17.01;100.00;101521.13;7368701;19;20468;-40
2023/08/12 05:51:32;;;;;;;6.53;5.50;;;;;;;17.01;100.00;101495.97;7392965;19;20479;-39
2023/08/12 05:54:05;;;;;;;10.00;6.67;;;;;;;17.12;100.00;101438.94;7369262;19;20447;-41
2023/08/12 05:56:35;;;;;;;9.47;7.27;;;;;;;17.17;100.00;101417.31;7395705;19;20487;-40
2023/08/12 05:59:04;;;;;;;13.20;7.27;;;;;;;17.20;100.00;101384.38;7369622;19;20442;-42
2023/08/12 06:01:34;;;;;;;11.23;7.47;;;;;;;17.11;100.00;101408.50;7395769;19;20431;-42
2023/08/12 06:04:04;;;;;;;12.17;7.87;;;;;;;17.10;100.00;101382.38;7368664;19;20997;-44
2023/08/12 06:06:34;;;;;;;10.57;6.97;;;;;;;17.09;100.00;101359.75;7394686;19;20475;-43
2023/08/12 06:09:06;;;;;;;10.53;7.10;;;;;;;17.00;100.00;101355.16;7369164;19;20508;-40
2023/08/12 06:11:36;;;;;;;8.67;7.00;;;;;;;17.12;100.00;101358.09;7394024;19;20431;-43
2023/08/12 06:14:06;;;;;;;15.83;8.10;;;;;;;17.16;100.00;101340.81;7367019;19;20435;-39
2023/08/12 06:16:35;;;;;;;9.87;7.37;;;;;;;17.14;100.00;101285.16;7395184;19;20492;-44
2023/08/12 06:19:05;;;;;;;10.87;7.60;;;;;;;17.15;100.00;101247.81;7370301;19;20523;-41
2023/08/12 06:21:35;;;;;;;9.60;7.63;;;;;;;17.05;100.00;101238.91;7393164;19;20407;-42
2023/08/12 06:24:08;;;;;;;12.97;8.20;;;;;;;16.94;100.00;101214.28;7366813;19;20526;-43
2023/08/12 06:26:38;;;;;;;9.53;8.13;;;;;;;16.96;100.00;101210.88;7395156;19;20439;-39
2023/08/12 06:29:07;;;;;;;12.70;7.90;;;;;;;16.99;100.00;101207.47;7368919;19;20465;-38
2023/08/12 06:31:37;;;;;;;31.20;8.83;;;;;;;16.99;100.00;101212.66;7392348;19;20396;-38
2023/08/12 06:34:07;;;;;;;12.90;8.10;;;;;;;17.02;100.00;101207.53;7367601;19;20475;-40
2023/08/12 06:36:36;;;;;;;11.53;7.77;;;;;;;16.96;100.00;101220.41;7393698;19;20471;-40
2023/08/12 06:39:09;;;;;;;10.90;8.00;;;;;;;16.99;100.00;101207.47;7368105;19;20448;-40
2023/08/12 06:41:39;;;;;;;11.43;7.80;;;;;;;17.04;100.00;101199.75;7393992;19;20431;-43
2023/08/12 06:44:09;;;;;;;17.70;11.57;;;;;;;17.03;100.00;101203.22;7367667;19;20432;-38
2023/08/12 06:46:38;;;;;;;13.27;9.77;;;;;;;17.06;100.00;101192.84;7393002;19;20451;-40
2023/08/12 06:49:08;;;;;;;10.80;8.93;;;;;;;17.05;100.00;101188.47;7368479;19;20451;-40
2023/08/12 06:51:38;;;;;;;14.43;9.10;;;;;;;17.02;100.00;101186.69;7394538;19;20414;-38
2023/08/12 06:54:10;;;;;;;33.33;18.43;;;;;;;17.09;100.00;101178.19;7366741;19;20530;-40
2023/08/12 06:56:40;;;;;;;11.67;9.43;;;;;;;17.12;100.00;101174.72;7392409;19;20451;-39
2023/08/12 06:59:09;;;;;;;11.47;9.27;;;;;;;17.12;100.00;101165.19;7368496;19;20805;-39
2023/08/12 07:01:39;;;;;;;13.10;9.83;;;;;;;17.13;100.00;101169.56;7394515;19;20414;-40
2023/08/12 07:04:09;;;;;;;23.20;15.23;;;;;;;17.21;100.00;101168.84;7366936;19;20450;-38
2023/08/12 07:06:39;;;;;;;14.63;10.87;;;;;;;17.24;100.00;101171.53;7391432;19;20524;-40
2023/08/12 07:09:11;;;;;;;18.93;10.90;;;;;;;17.17;100.00;101172.25;7366965;19;20555;-39
2023/08/12 07:11:41;;;;;;;19.10;12.70;;;;;;;17.27;100.00;101176.78;7392596;19;20419;-42
2023/08/12 07:14:10;;;;;;;16.43;11.33;;;;;;;17.37;100.00;101168.31;7365004;19;20446;-41
2023/08/12 07:16:40;;;;;;;18.00;12.47;;;;;;;17.48;100.00;101162.44;7392204;19;20461;-38
2023/08/12 07:19:10;;;;;;;21.17;12.70;;;;;;;17.54;100.00;101159.97;7365356;19;20454;-39
2023/08/12 07:21:42;;;;;;;22.90;14.40;;;;;;;17.63;100.00;101154.91;7392673;19;20411;-42
2023/08/12 07:24:14;;;;;;;26.73;17.70;;;;;;;17.76;100.00;101147.31;7366878;19;20449;-40
2023/08/12 07:26:44;;;;;;;18.87;14.00;;;;;;;17.81;100.00;101164.78;7391019;19;20558;-38
2023/08/12 07:29:14;;;;;;;19.70;12.97;;;;;;;17.88;100.00;101150.13;7365068;19;20499;-40
2023/08/12 07:31:44;;;;;;;14.03;12.13;;;;;;;17.98;100.00;101155.50;7392476;19;20430;-40
2023/08/12 07:34:14;;;;;;;13.00;10.47;;;;;;;18.06;100.00;101153.94;7366959;19;20461;-38
2023/08/12 07:36:44;;;;;;;15.67;10.80;;;;;;;18.16;100.00;101155.84;7390520;19;20447;-39
2023/08/12 07:39:16;;;;;;;15.67;11.60;;;;;;;18.25;100.00;101154.25;7366547;19;20427;-40
2023/08/12 07:41:45;;;;;;;15.43;10.80;;;;;;;18.32;100.00;101158.72;7393561;19;20406;-46
2023/08/12 07:44:15;;;;;;;15.43;12.80;;;;;;;18.30;100.00;101160.44;7366716;19;20431;-42
2023/08/12 07:46:45;;;;;;;15.97;10.77;;;;;;;18.38;100.00;101177.09;7391311;19;21169;-41
2023/08/12 07:49:15;;;;;;;17.60;11.83;;;;;;;18.30;100.00;101186.56;7366959;19;20443;-41
2023/08/12 07:51:45;;;;;;;35.60;23.50;;;;;;;18.48;100.00;101184.25;7393674;19;20490;-43
2023/08/12 07:54:17;;;;;;;17.37;13.33;;;;;;;18.61;100.00;101174.00;7369183;19;20415;-41
2023/08/12 07:56:46;;;;;;;22.63;15.20;;;;;;;18.69;100.00;101161.91;7399688;19;20515;-40
2023/08/12 07:59:16;;;;;;;19.53;14.53;;;;;;;18.79;100.00;101167.25;7373498;19;20463;-42
2023/08/12 08:01:46;;;;;;;17.73;12.50;;;;;;;18.91;100.00;101172.66;7397966;19;20419;-41
2023/08/12 08:04:15;;;;;;;13.63;10.63;;;;;;;18.99;100.00;101180.59;7371980;19;20423;-41
2023/08/12 08:06:45;;;;;;;15.77;11.10;;;;;;;19.00;100.00;101184.97;7397480;19;20439;-43
2023/08/12 08:09:19;;;;;;;13.10;9.67;;;;;;;18.99;100.00;101194.56;7373805;19;20507;-38
2023/08/12 08:11:49;;;;;;;14.90;10.33;;;;;;;18.99;100.00;101217.22;7397512;19;20930;-40
2023/08/12 08:14:19;;;;;;;12.57;9.53;;;;;;;18.91;100.00;101217.09;7370958;19;20427;-40
2023/08/12 08:16:49;;;;;;;12.90;10.40;;;;;;;19.07;100.00;101199.06;7398771;19;20465;-43
2023/08/12 08:19:19;;;;;;;14.00;10.00;;;;;;;19.25;100.00;101201.03;7370713;19;21105;-40
2023/08/12 08:21:49;;;;;;;13.37;9.43;;;;;;;19.25;100.00;101194.06;7398250;19;20407;-38
2023/08/12 08:24:21;;;;;;;11.60;10.37;;;;;;;19.24;100.00;101187.09;7372521;19;20446;-38
2023/08/12 08:26:51;;;;;;;14.33;9.87;;;;;;;19.16;100.00;101194.81;7398434;19;20467;-45
2023/08/12 08:29:20;;;;;;;13.43;9.80;;;;;;;19.20;100.00;101195.75;7371982;19;21152;-42
2023/08/12 08:31:50;;;;;;;12.93;9.20;;;;;;;19.35;100.00;101200.28;7399916;19;20416;-37
2023/08/12 08:34:20;;;;;;;14.00;10.10;;;;;;;19.52;100.00;101192.63;7371536;19;20459;-40
2023/08/12 08:36:49;;;;;;;12.97;9.00;;;;;;;19.65;100.00;101205.84;7397020;19;20505;-40
2023/08/12 08:39:24;;;;;;;11.00;9.40;;;;;;;19.54;100.00;101205.75;7371795;19;20437;-42
2023/08/12 08:41:56;;;;;;;13.53;8.43;;;;;;;19.59;100.00;101218.88;7398866;19;20425;-39
2023/08/12 08:44:26;;;;;;;13.53;9.00;;;;;;;19.62;100.00;101221.50;7372226;19;21002;-40
2023/08/12 08:46:56;;;;;;;12.13;9.43;;;;;;;19.66;100.00;101215.47;7397646;19;20507;-41
2023/08/12 08:49:25;;;;;;;11.80;8.90;;;;;;;19.75;100.00;101220.81;7372250;19;20514;-43
2023/08/12 08:51:55;;;;;;;11.90;8.63;;;;;;;19.88;100.00;101224.44;7396948;19;20456;-41
2023/08/12 08:54:28;;;;;;;10.70;9.00;;;;;;;20.02;100.00;101224.59;7371972;19;20431;-41
2023/08/12 08:56:57;;;;;;;9.93;7.40;;;;;;;20.02;100.00;101224.59;7397045;19;20439;-40
2023/08/12 08:59:42;;;;;;;12.80;9.37;;;;;;;20.00;100.00;101230.69;7375632;19;20439;-44
2023/08/12 09:02:18;;;;;;;15.20;9.67;;;;;;;20.03;100.00;101234.22;7393258;19;20420;-38
2023/08/12 09:04:48;;;;;;;17.40;12.80;;;;;;;20.12;100.00;101237.78;7395842;19;20491;-41
2023/08/12 09:07:18;;;;;;;25.90;16.43;;;;;;;20.16;100.00;101248.31;7370199;19;20463;-38
2023/08/12 09:09:52;;;;;;;12.67;8.00;;;;;;;20.06;100.00;101251.69;7396866;19;20844;-40
2023/08/12 09:12:22;;;;;;;13.40;9.10;;;;;;;20.07;100.00;101253.47;7371134;19;20430;-44
2023/08/12 09:14:52;;;;;;;15.27;8.43;;;;;;;20.14;100.00;101254.41;7394424;19;21197;-39
2023/08/12 09:17:22;;;;;;;12.30;8.70;;;;;;;20.20;100.00;101259.72;7370892;19;20455;-40
2023/08/12 09:19:52;;;;;;;15.10;8.57;;;;;;;20.22;100.00;101260.59;7393983;19;20408;-41
2023/08/12 09:22:21;;;;;;;10.13;6.63;;;;;;;20.24;100.00;101266.72;7372680;19;20439;-39
2023/08/12 09:24:59;;;;;;;8.10;7.03;;;;;;;20.17;100.00;101264.91;7395786;19;20418;-39
2023/08/12 09:27:28;;;;;;;9.63;7.13;;;;;;;20.02;100.00;101256.03;7369044;19;20507;-44
2023/08/12 09:29:59;;;;;;;32.83;23.50;;;;;;;20.16;100.00;101257.91;7394008;19;20950;-39
2023/08/12 09:32:28;;;;;;;24.90;17.20;;;;;;;20.22;100.00;101257.97;7370867;19;20868;-39
2023/08/12 09:35:01;;;;;;;25.53;16.47;;;;;;;20.27;100.00;101253.66;7393088;19;20415;-39
2023/08/12 09:37:31;;;;;;;13.20;9.70;;;;;;;20.27;100.00;101251.03;7369489;19;20826;-45
2023/08/12 09:40:05;;;;;;;18.00;9.73;;;;;;;20.29;100.00;101240.56;7396356;19;20408;-39
2023/08/12 09:42:35;;;;;;;11.30;8.30;;;;;;;20.33;100.00;101239.72;7369144;19;20457;-41
2023/08/12 09:45:06;;;;;;;18.20;9.30;;;;;;;20.31;100.00;101239.69;7395247;19;20424;-39
2023/08/12 09:47:36;;;;;;;10.07;7.67;;;;;;;20.20;100.00;101241.38;7370166;19;20409;-43
2023/08/12 09:50:07;;;;;;;12.00;7.83;;;;;;;20.10;100.00;101240.41;7395843;19;20467;-39
2023/08/12 09:52:37;;;;;;;11.60;8.30;;;;;;;20.09;100.00;101226.41;7370329;19;20767;-42
2023/08/12 09:55:11;;;;;;;13.87;8.43;;;;;;;20.07;100.00;101228.16;7393621;19;20446;-43
2023/08/12 09:57:43;;;;;;;10.27;7.97;;;;;;;20.01;100.00;101217.63;7370024;19;20399;-42
2023/08/12 10:00:16;;;;;;;17.47;10.40;;;;;;;19.97;100.00;101205.34;7395733;19;21016;-37
2023/08/12 10:02:51;;;;;;;18.07;10.20;;;;;;;19.79;100.00;101203.41;7369019;19;20443;-39
2023/08/12 10:05:25;;;;;;;13.33;9.83;;;;;;;19.74;100.00;101194.63;7392387;19;20817;-41
2023/08/12 10:07:56;;;;;;;15.53;10.27;;;;;;;19.74;100.00;101192.84;7369321;19;20395;-38
2023/08/12 10:10:28;;;;;;;23.13;13.13;;;;;;;19.70;100.00;101191.09;7395199;19;20448;-39
2023/08/12 10:12:58;;;;;;;12.23;8.43;;;;;;;19.74;100.00;101177.16;7369212;19;20483;-39
2023/08/12 10:15:28;;;;;;;13.80;9.33;;;;;;;19.66;100.00;101173.59;7394136;19;20420;-42
2023/08/12 10:17:58;;;;;;;10.07;7.67;;;;;;;19.68;100.00;101171.84;7367844;19;20403;-40
2023/08/12 10:20:28;;;;;;;10.83;8.17;;;;;;;19.64;100.00;101164.84;7392123;19;20396;-38
2023/08/12 10:22:58;;;;;;;14.80;8.73;;;;;;;19.70;100.00;101164.91;7369297;19;20431;-40
2023/08/12 10:25:34;;;;;;;13.77;10.27;;;;;;;19.84;100.00;101159.78;7391790;19;20407;-39
2023/08/12 10:28:04;;;;;;;23.83;16.17;;;;;;;19.95;100.00;101158.19;7367127;19;20410;-39
2023/08/12 10:30:34;;;;;;;13.73;8.93;;;;;;;19.92;100.00;101160.78;7390366;19;20404;-38
2023/08/12 10:33:04;;;;;;;17.50;11.20;;;;;;;20.01;100.00;101165.25;7368155;19;20595;-39
2023/08/12 10:35:44;;;;;;;13.57;9.50;;;;;;;19.88;100.00;101173.81;7390572;19;20522;-40
2023/08/12 10:38:16;;;;;;;16.20;9.57;;;;;;;19.85;100.00;101169.44;7367153;19;20950;-40
2023/08/12 10:40:48;;;;;;;13.30;10.00;;;;;;;20.02;100.00;101180.09;7392288;19;20407;-39
2023/08/12 10:43:17;;;;;;;16.40;10.77;;;;;;;20.16;100.00;101174.09;7368634;19;20519;-43
2023/08/12 10:45:50;;;;;;;13.57;8.77;;;;;;;20.12;100.00;101180.16;7393081;19;20427;-39
2023/08/12 10:48:21;;;;;;;14.60;8.80;;;;;;;20.05;100.00;101182.72;7367133;19;20454;-43
2023/08/12 10:50:54;;;;;;;13.07;8.40;;;;;;;20.00;100.00;101176.56;7394654;19;20416;-38
2023/08/12 10:53:29;;;;;;;10.37;7.97;;;;;;;20.01;100.00;101165.25;7365394;19;20429;-40
2023/08/12 10:56:04;;;;;;;13.77;7.70;;;;;;;19.94;100.00;101169.50;7392302;19;20407;-39
2023/08/12 10:58:37;;;;;;;11.23;7.80;;;;;;;20.16;100.00;101163.63;7367487;19;20433;-41
2023/08/12 11:01:14;;;;;;;11.10;7.60;;;;;;;20.17;100.00;101165.38;7393431;19;20427;-40
2023/08/12 11:03:45;;;;;;;10.33;6.73;;;;;;;20.17;100.00;101165.38;7365247;19;20864;-39
2023/08/12 11:06:15;;;;;;;14.93;7.67;;;;;;;20.31;100.00;101168.97;7392000;19;20432;-43
2023/08/12 11:08:48;;;;;;;11.07;7.50;;;;;;;20.38;100.00;101169.91;7365301;19;20447;-39
2023/08/12 11:11:25;;;;;;;9.80;7.03;;;;;;;20.40;100.00;101172.53;7395350;19;20475;-38
2023/08/12 11:13:55;;;;;;;9.63;7.07;;;;;;;20.45;100.00;101173.47;7365430;19;20534;-43
2023/08/12 11:16:34;;;;;;;10.03;6.67;;;;;;;20.45;100.00;101191.81;7392121;19;20443;-41
2023/08/12 11:19:07;;;;;;;9.40;6.33;;;;;;;20.48;100.00;101207.53;7367199;19;20534;-43
2023/08/12 11:21:39;;;;;;;10.53;7.07;;;;;;;20.64;100.00;101198.94;7393639;19;20491;-41
2023/08/12 11:24:09;;;;;;;8.30;6.33;;;;;;;20.73;100.00;101195.50;7366432;19;20501;-39
2023/08/12 11:26:42;;;;;;;9.40;6.20;;;;;;;20.81;100.00;101211.25;7391549;19;20415;-39